KEVV

Evansville Regional Airport

Evansville, Indiana, USA
METAR KEVV 182154Z 22009KT 10SM SCT047 32/23 A3002 RMK AO2 SLP159 T03220228
Observed Flight Rules
Jun-18 @ 21:54 UTC (43 minutes ago) Visual Flight Rules
Wind Visibility Clouds
220° at 9 knots 10 miles
  • Scattered at 4,700' AGL
Temperatures Readings
Current 32°C / 90°F
Dewpoint 23°C / 73°F
Humidity 59%
Altimeter 30.02" Hg
Pressure 1015.9 hPa
Elevation 117
METAR KEVV 182154Z 22009KT 10SM SCT047 32/23 A3002 RMK AO2 SLP159 T03220228
Observed Flight Rules
Jun-18 @ 21:54 UTC
(43 minutes ago)
VFR
Wind Visibility
220° at 9 knots 10 miles
Clouds
  • Scattered at 4,700' AGL
Temperature Dewpoint
32°C / 90°F 23°C / 73°F
Humidity Altimeter Pressure
59% 30.02" Hg 1015.9 hPa